sensor_id;sensor_type;location;lat;lon;timestamp;P1;durP1;ratioP1;P2;durP2;ratioP2
25915;SDS011;13719;48.188;11.618;2023-06-26T00:01:57;9.18;;;4.18;;
25915;SDS011;13719;48.188;11.618;2023-06-26T00:04:25;8.95;;;4.72;;
25915;SDS011;13719;48.188;11.618;2023-06-26T00:06:54;8.65;;;4.75;;
25915;SDS011;13719;48.188;11.618;2023-06-26T00:09:23;7.85;;;4.07;;
25915;SDS011;13719;48.188;11.618;2023-06-26T00:11:52;7.45;;;4.10;;
25915;SDS011;13719;48.188;11.618;2023-06-26T00:14:20;7.70;;;3.97;;
25915;SDS011;13719;48.188;11.618;2023-06-26T00:16:49;9.43;;;4.38;;
25915;SDS011;13719;48.188;11.618;2023-06-26T00:19:17;7.57;;;4.25;;
25915;SDS011;13719;48.188;11.618;2023-06-26T00:21:46;7.05;;;3.60;;
25915;SDS011;13719;48.188;11.618;2023-06-26T00:24:14;8.98;;;4.05;;
25915;SDS011;13719;48.188;11.618;2023-06-26T00:26:46;8.77;;;4.47;;
25915;SDS011;13719;48.188;11.618;2023-06-26T00:29:15;10.13;;;4.80;;
25915;SDS011;13719;48.188;11.618;2023-06-26T00:31:43;8.50;;;4.45;;
25915;SDS011;13719;48.188;11.618;2023-06-26T00:34:11;9.57;;;4.40;;
25915;SDS011;13719;48.188;11.618;2023-06-26T00:36:41;8.55;;;3.97;;
25915;SDS011;13719;48.188;11.618;2023-06-26T00:39:10;7.45;;;3.88;;
25915;SDS011;13719;48.188;11.618;2023-06-26T00:41:39;8.98;;;4.50;;
25915;SDS011;13719;48.188;11.618;2023-06-26T00:44:08;7.70;;;4.18;;
25915;SDS011;13719;48.188;11.618;2023-06-26T00:46:37;10.68;;;5.10;;
25915;SDS011;13719;48.188;11.618;2023-06-26T00:49:05;9.93;;;4.55;;
25915;SDS011;13719;48.188;11.618;2023-06-26T00:51:34;9.85;;;4.50;;
25915;SDS011;13719;48.188;11.618;2023-06-26T00:54:02;9.52;;;4.38;;
25915;SDS011;13719;48.188;11.618;2023-06-26T00:56:31;9.45;;;4.43;;
25915;SDS011;13719;48.188;11.618;2023-06-26T00:58:59;9.30;;;4.57;;
25915;SDS011;13719;48.188;11.618;2023-06-26T01:01:29;8.68;;;4.13;;
25915;SDS011;13719;48.188;11.618;2023-06-26T01:03:57;7.85;;;4.30;;
25915;SDS011;13719;48.188;11.618;2023-06-26T01:06:26;7.82;;;4.30;;
25915;SDS011;13719;48.188;11.618;2023-06-26T01:08:58;9.55;;;4.45;;
25915;SDS011;13719;48.188;11.618;2023-06-26T01:11:26;7.63;;;4.22;;
25915;SDS011;13719;48.188;11.618;2023-06-26T01:13:55;10.48;;;5.30;;
25915;SDS011;13719;48.188;11.618;2023-06-26T01:16:24;8.07;;;4.22;;
25915;SDS011;13719;48.188;11.618;2023-06-26T01:18:54;8.70;;;4.22;;
25915;SDS011;13719;48.188;11.618;2023-06-26T01:21:23;8.35;;;4.40;;
25915;SDS011;13719;48.188;11.618;2023-06-26T01:24:02;11.13;;;4.65;;
25915;SDS011;13719;48.188;11.618;2023-06-26T01:26:34;9.77;;;4.45;;
25915;SDS011;13719;48.188;11.618;2023-06-26T01:29:04;9.25;;;4.88;;
25915;SDS011;13719;48.188;11.618;2023-06-26T01:31:34;8.63;;;4.55;;
25915;SDS011;13719;48.188;11.618;2023-06-26T01:34:03;10.32;;;4.60;;
25915;SDS011;13719;48.188;11.618;2023-06-26T01:36:32;7.65;;;4.38;;
25915;SDS011;13719;48.188;11.618;2023-06-26T01:39:00;7.78;;;4.25;;
25915;SDS011;13719;48.188;11.618;2023-06-26T01:41:28;8.80;;;4.80;;
25915;SDS011;13719;48.188;11.618;2023-06-26T01:44:01;6.75;;;4.10;;
25915;SDS011;13719;48.188;11.618;2023-06-26T01:46:33;8.27;;;5.00;;
25915;SDS011;13719;48.188;11.618;2023-06-26T01:49:05;7.90;;;4.38;;
25915;SDS011;13719;48.188;11.618;2023-06-26T01:51:35;11.77;;;4.22;;
25915;SDS011;13719;48.188;11.618;2023-06-26T01:54:06;7.57;;;3.90;;
25915;SDS011;13719;48.188;11.618;2023-06-26T01:56:36;8.60;;;5.05;;
25915;SDS011;13719;48.188;11.618;2023-06-26T01:59:07;9.48;;;4.43;;
25915;SDS011;13719;48.188;11.618;2023-06-26T02:01:37;8.70;;;4.18;;
25915;SDS011;13719;48.188;11.618;2023-06-26T02:04:05;9.95;;;4.22;;
25915;SDS011;13719;48.188;11.618;2023-06-26T02:06:33;6.32;;;4.03;;
25915;SDS011;13719;48.188;11.618;2023-06-26T02:09:04;9.32;;;4.22;;
25915;SDS011;13719;48.188;11.618;2023-06-26T02:11:34;9.35;;;4.32;;
25915;SDS011;13719;48.188;11.618;2023-06-26T02:14:02;7.82;;;4.50;;
25915;SDS011;13719;48.188;11.618;2023-06-26T02:16:32;8.63;;;4.45;;
25915;SDS011;13719;48.188;11.618;2023-06-26T02:19:00;7.72;;;4.00;;
25915;SDS011;13719;48.188;11.618;2023-06-26T02:21:28;7.90;;;4.25;;
25915;SDS011;13719;48.188;11.618;2023-06-26T02:23:57;7.65;;;4.20;;
25915;SDS011;13719;48.188;11.618;2023-06-26T02:26:25;7.72;;;4.15;;
25915;SDS011;13719;48.188;11.618;2023-06-26T02:28:54;11.82;;;4.43;;
25915;SDS011;13719;48.188;11.618;2023-06-26T02:31:22;7.30;;;4.38;;
25915;SDS011;13719;48.188;11.618;2023-06-26T02:33:52;10.10;;;4.45;;
25915;SDS011;13719;48.188;11.618;2023-06-26T02:36:20;8.23;;;4.72;;
25915;SDS011;13719;48.188;11.618;2023-06-26T02:38:49;11.77;;;5.53;;
25915;SDS011;13719;48.188;11.618;2023-06-26T02:41:17;9.32;;;4.47;;
25915;SDS011;13719;48.188;11.618;2023-06-26T02:43:46;8.15;;;4.13;;
25915;SDS011;13719;48.188;11.618;2023-06-26T02:46:14;8.63;;;4.28;;
25915;SDS011;13719;48.188;11.618;2023-06-26T02:48:42;9.23;;;4.47;;
25915;SDS011;13719;48.188;11.618;2023-06-26T02:51:12;10.45;;;4.70;;
25915;SDS011;13719;48.188;11.618;2023-06-26T02:53:41;8.93;;;4.50;;
25915;SDS011;13719;48.188;11.618;2023-06-26T02:56:10;10.68;;;4.70;;
25915;SDS011;13719;48.188;11.618;2023-06-26T02:58:39;11.20;;;5.03;;
25915;SDS011;13719;48.188;11.618;2023-06-26T03:01:07;8.60;;;4.78;;
25915;SDS011;13719;48.188;11.618;2023-06-26T03:03:35;6.97;;;4.57;;
25915;SDS011;13719;48.188;11.618;2023-06-26T03:06:07;9.20;;;4.85;;
25915;SDS011;13719;48.188;11.618;2023-06-26T03:08:37;7.25;;;3.85;;
25915;SDS011;13719;48.188;11.618;2023-06-26T03:11:06;9.30;;;4.20;;
25915;SDS011;13719;48.188;11.618;2023-06-26T03:13:34;10.60;;;5.22;;
25915;SDS011;13719;48.188;11.618;2023-06-26T03:16:03;11.30;;;4.78;;
25915;SDS011;13719;48.188;11.618;2023-06-26T03:18:31;8.43;;;4.40;;
25915;SDS011;13719;48.188;11.618;2023-06-26T03:21:00;8.73;;;4.15;;
25915;SDS011;13719;48.188;11.618;2023-06-26T03:23:28;8.45;;;4.45;;
25915;SDS011;13719;48.188;11.618;2023-06-26T03:25:58;10.90;;;4.82;;
25915;SDS011;13719;48.188;11.618;2023-06-26T03:28:26;8.40;;;4.65;;
25915;SDS011;13719;48.188;11.618;2023-06-26T03:30:57;8.85;;;4.38;;
25915;SDS011;13719;48.188;11.618;2023-06-26T03:33:25;7.63;;;4.00;;
25915;SDS011;13719;48.188;11.618;2023-06-26T03:35:54;8.55;;;4.30;;
25915;SDS011;13719;48.188;11.618;2023-06-26T03:38:22;8.90;;;4.22;;
25915;SDS011;13719;48.188;11.618;2023-06-26T03:40:52;8.63;;;3.88;;
25915;SDS011;13719;48.188;11.618;2023-06-26T03:43:21;7.78;;;4.15;;
25915;SDS011;13719;48.188;11.618;2023-06-26T03:45:50;7.50;;;4.03;;
25915;SDS011;13719;48.188;11.618;2023-06-26T03:48:18;11.00;;;5.03;;
25915;SDS011;13719;48.188;11.618;2023-06-26T03:50:47;8.73;;;4.00;;
25915;SDS011;13719;48.188;11.618;2023-06-26T03:53:15;9.88;;;4.90;;
25915;SDS011;13719;48.188;11.618;2023-06-26T03:55:43;10.50;;;5.15;;
25915;SDS011;13719;48.188;11.618;2023-06-26T03:58:12;11.75;;;4.45;;
25915;SDS011;13719;48.188;11.618;2023-06-26T04:00:41;11.60;;;4.88;;
25915;SDS011;13719;48.188;11.618;2023-06-26T04:03:10;8.85;;;4.65;;
25915;SDS011;13719;48.188;11.618;2023-06-26T04:05:38;9.02;;;4.60;;
25915;SDS011;13719;48.188;11.618;2023-06-26T04:08:07;11.82;;;4.70;;
25915;SDS011;13719;48.188;11.618;2023-06-26T04:10:35;9.48;;;4.93;;
25915;SDS011;13719;48.188;11.618;2023-06-26T04:13:04;10.85;;;5.68;;
25915;SDS011;13719;48.188;11.618;2023-06-26T04:15:32;10.38;;;4.32;;
25915;SDS011;13719;48.188;11.618;2023-06-26T04:18:02;9.52;;;4.63;;
25915;SDS011;13719;48.188;11.618;2023-06-26T04:20:31;11.93;;;5.07;;
25915;SDS011;13719;48.188;11.618;2023-06-26T04:23:01;15.27;;;6.00;;
25915;SDS011;13719;48.188;11.618;2023-06-26T04:25:30;12.98;;;5.28;;
25915;SDS011;13719;48.188;11.618;2023-06-26T04:27:58;8.60;;;4.60;;
25915;SDS011;13719;48.188;11.618;2023-06-26T04:30:26;12.80;;;5.03;;
25915;SDS011;13719;48.188;11.618;2023-06-26T04:32:56;11.73;;;5.43;;
25915;SDS011;13719;48.188;11.618;2023-06-26T04:35:26;8.70;;;4.05;;
25915;SDS011;13719;48.188;11.618;2023-06-26T04:37:55;8.13;;;4.13;;
25915;SDS011;13719;48.188;11.618;2023-06-26T04:40:23;10.13;;;4.40;;
25915;SDS011;13719;48.188;11.618;2023-06-26T04:42:51;11.35;;;4.78;;
25915;SDS011;13719;48.188;11.618;2023-06-26T04:45:20;9.95;;;4.55;;
25915;SDS011;13719;48.188;11.618;2023-06-26T04:47:48;8.30;;;4.57;;
25915;SDS011;13719;48.188;11.618;2023-06-26T04:50:17;9.10;;;5.00;;
25915;SDS011;13719;48.188;11.618;2023-06-26T04:52:47;9.73;;;4.57;;
25915;SDS011;13719;48.188;11.618;2023-06-26T04:55:15;9.75;;;5.05;;
25915;SDS011;13719;48.188;11.618;2023-06-26T04:57:43;10.15;;;4.90;;
25915;SDS011;13719;48.188;11.618;2023-06-26T05:00:12;7.10;;;4.28;;
25915;SDS011;13719;48.188;11.618;2023-06-26T05:02:41;7.28;;;4.25;;
25915;SDS011;13719;48.188;11.618;2023-06-26T05:05:10;6.50;;;4.00;;
25915;SDS011;13719;48.188;11.618;2023-06-26T05:07:38;7.95;;;4.10;;
25915;SDS011;13719;48.188;11.618;2023-06-26T05:10:08;14.40;;;5.40;;
25915;SDS011;13719;48.188;11.618;2023-06-26T05:12:37;10.48;;;4.30;;
25915;SDS011;13719;48.188;11.618;2023-06-26T05:15:05;10.02;;;4.40;;
25915;SDS011;13719;48.188;11.618;2023-06-26T05:17:34;9.02;;;4.88;;
25915;SDS011;13719;48.188;11.618;2023-06-26T05:20:02;12.18;;;6.40;;
25915;SDS011;13719;48.188;11.618;2023-06-26T05:22:31;12.57;;;5.40;;
25915;SDS011;13719;48.188;11.618;2023-06-26T05:25:01;10.35;;;5.13;;
25915;SDS011;13719;48.188;11.618;2023-06-26T05:27:32;8.90;;;4.40;;
25915;SDS011;13719;48.188;11.618;2023-06-26T05:30:01;11.50;;;5.45;;
25915;SDS011;13719;48.188;11.618;2023-06-26T05:32:30;13.10;;;5.50;;
25915;SDS011;13719;48.188;11.618;2023-06-26T05:34:58;13.45;;;5.20;;
25915;SDS011;13719;48.188;11.618;2023-06-26T05:37:29;10.23;;;5.05;;
25915;SDS011;13719;48.188;11.618;2023-06-26T05:39:57;8.63;;;4.45;;
25915;SDS011;13719;48.188;11.618;2023-06-26T05:42:26;10.48;;;4.60;;
25915;SDS011;13719;48.188;11.618;2023-06-26T05:44:56;10.80;;;4.80;;
25915;SDS011;13719;48.188;11.618;2023-06-26T05:47:24;13.57;;;5.22;;
25915;SDS011;13719;48.188;11.618;2023-06-26T05:49:53;11.40;;;4.78;;
25915;SDS011;13719;48.188;11.618;2023-06-26T05:52:22;9.88;;;4.50;;
25915;SDS011;13719;48.188;11.618;2023-06-26T05:54:51;8.98;;;4.80;;
25915;SDS011;13719;48.188;11.618;2023-06-26T05:57:19;7.15;;;3.95;;
25915;SDS011;13719;48.188;11.618;2023-06-26T05:59:47;9.60;;;4.55;;
25915;SDS011;13719;48.188;11.618;2023-06-26T06:02:17;9.38;;;4.15;;
25915;SDS011;13719;48.188;11.618;2023-06-26T06:04:46;10.88;;;4.25;;
25915;SDS011;13719;48.188;11.618;2023-06-26T06:07:14;8.20;;;3.97;;
25915;SDS011;13719;48.188;11.618;2023-06-26T06:09:43;9.60;;;4.53;;
25915;SDS011;13719;48.188;11.618;2023-06-26T06:12:11;9.95;;;4.82;;
25915;SDS011;13719;48.188;11.618;2023-06-26T06:14:39;8.32;;;4.15;;
25915;SDS011;13719;48.188;11.618;2023-06-26T06:17:08;11.13;;;4.60;;
25915;SDS011;13719;48.188;11.618;2023-06-26T06:19:38;9.30;;;4.57;;
25915;SDS011;13719;48.188;11.618;2023-06-26T06:22:06;7.65;;;4.30;;
25915;SDS011;13719;48.188;11.618;2023-06-26T06:24:36;10.43;;;5.05;;
25915;SDS011;13719;48.188;11.618;2023-06-26T06:27:04;14.32;;;4.60;;
25915;SDS011;13719;48.188;11.618;2023-06-26T06:29:33;8.57;;;4.55;;
25915;SDS011;13719;48.188;11.618;2023-06-26T06:32:01;10.20;;;4.30;;
25915;SDS011;13719;48.188;11.618;2023-06-26T06:34:29;8.05;;;4.30;;
25915;SDS011;13719;48.188;11.618;2023-06-26T06:36:59;8.45;;;3.65;;
25915;SDS011;13719;48.188;11.618;2023-06-26T06:39:28;10.13;;;4.80;;
25915;SDS011;13719;48.188;11.618;2023-06-26T06:41:56;11.20;;;4.93;;
25915;SDS011;13719;48.188;11.618;2023-06-26T06:44:25;7.15;;;4.38;;
25915;SDS011;13719;48.188;11.618;2023-06-26T06:46:53;10.57;;;4.18;;
25915;SDS011;13719;48.188;11.618;2023-06-26T06:49:21;8.05;;;4.15;;
25915;SDS011;13719;48.188;11.618;2023-06-26T06:51:50;8.88;;;4.32;;
25915;SDS011;13719;48.188;11.618;2023-06-26T06:54:20;9.30;;;4.55;;
25915;SDS011;13719;48.188;11.618;2023-06-26T06:56:48;8.27;;;4.38;;
25915;SDS011;13719;48.188;11.618;2023-06-26T06:59:16;10.63;;;4.72;;
25915;SDS011;13719;48.188;11.618;2023-06-26T07:01:45;6.60;;;4.03;;
25915;SDS011;13719;48.188;11.618;2023-06-26T07:04:13;8.40;;;4.35;;
25915;SDS011;13719;48.188;11.618;2023-06-26T07:06:41;8.25;;;4.28;;
25915;SDS011;13719;48.188;11.618;2023-06-26T07:09:10;8.40;;;3.85;;
25915;SDS011;13719;48.188;11.618;2023-06-26T07:11:40;9.38;;;4.03;;
25915;SDS011;13719;48.188;11.618;2023-06-26T07:14:08;7.78;;;4.30;;
25915;SDS011;13719;48.188;11.618;2023-06-26T07:16:36;7.90;;;4.32;;
25915;SDS011;13719;48.188;11.618;2023-06-26T07:19:05;10.75;;;4.75;;
25915;SDS011;13719;48.188;11.618;2023-06-26T07:21:33;6.50;;;3.70;;
25915;SDS011;13719;48.188;11.618;2023-06-26T07:24:02;9.05;;;3.53;;
25915;SDS011;13719;48.188;11.618;2023-06-26T07:26:30;7.95;;;3.40;;
25915;SDS011;13719;48.188;11.618;2023-06-26T07:29:12;5.80;;;3.78;;
25915;SDS011;13719;48.188;11.618;2023-06-26T07:31:40;6.93;;;3.67;;
25915;SDS011;13719;48.188;11.618;2023-06-26T07:34:09;6.03;;;3.58;;
25915;SDS011;13719;48.188;11.618;2023-06-26T07:36:37;7.82;;;3.75;;
25915;SDS011;13719;48.188;11.618;2023-06-26T07:39:06;8.50;;;4.03;;
25915;SDS011;13719;48.188;11.618;2023-06-26T07:41:38;7.20;;;4.03;;
25915;SDS011;13719;48.188;11.618;2023-06-26T07:44:06;9.20;;;3.80;;
25915;SDS011;13719;48.188;11.618;2023-06-26T07:46:36;6.75;;;3.65;;
25915;SDS011;13719;48.188;11.618;2023-06-26T07:49:05;7.65;;;4.30;;
25915;SDS011;13719;48.188;11.618;2023-06-26T07:51:33;7.32;;;4.25;;
25915;SDS011;13719;48.188;11.618;2023-06-26T07:54:02;7.38;;;3.78;;
25915;SDS011;13719;48.188;11.618;2023-06-26T07:56:30;6.55;;;3.80;;
25915;SDS011;13719;48.188;11.618;2023-06-26T07:58:59;8.00;;;3.85;;
25915;SDS011;13719;48.188;11.618;2023-06-26T08:01:30;8.10;;;4.20;;
25915;SDS011;13719;48.188;11.618;2023-06-26T08:04:00;7.60;;;3.97;;
25915;SDS011;13719;48.188;11.618;2023-06-26T08:06:29;6.07;;;3.70;;
25915;SDS011;13719;48.188;11.618;2023-06-26T08:08:58;7.85;;;4.05;;
25915;SDS011;13719;48.188;11.618;2023-06-26T08:11:26;5.97;;;3.80;;
25915;SDS011;13719;48.188;11.618;2023-06-26T08:13:55;6.22;;;3.65;;
25915;SDS011;13719;48.188;11.618;2023-06-26T08:16:23;8.07;;;4.32;;
25915;SDS011;13719;48.188;11.618;2023-06-26T08:18:52;7.70;;;4.43;;
25915;SDS011;13719;48.188;11.618;2023-06-26T08:21:21;6.93;;;3.85;;
25915;SDS011;13719;48.188;11.618;2023-06-26T08:23:50;7.35;;;4.07;;
25915;SDS011;13719;48.188;11.618;2023-06-26T08:26:18;6.25;;;4.05;;
25915;SDS011;13719;48.188;11.618;2023-06-26T08:28:47;7.18;;;4.32;;
25915;SDS011;13719;48.188;11.618;2023-06-26T08:31:16;8.60;;;4.43;;
25915;SDS011;13719;48.188;11.618;2023-06-26T08:33:44;7.50;;;4.20;;
25915;SDS011;13719;48.188;11.618;2023-06-26T08:36:13;6.45;;;4.20;;
25915;SDS011;13719;48.188;11.618;2023-06-26T08:38:43;8.98;;;4.22;;
25915;SDS011;13719;48.188;11.618;2023-06-26T08:41:11;7.72;;;4.00;;
25915;SDS011;13719;48.188;11.618;2023-06-26T08:43:40;8.38;;;4.47;;
25915;SDS011;13719;48.188;11.618;2023-06-26T08:46:08;8.57;;;4.50;;
25915;SDS011;13719;48.188;11.618;2023-06-26T08:48:39;11.05;;;4.65;;
25915;SDS011;13719;48.188;11.618;2023-06-26T08:51:11;6.70;;;4.43;;
25915;SDS011;13719;48.188;11.618;2023-06-26T08:53:46;6.05;;;3.90;;
25915;SDS011;13719;48.188;11.618;2023-06-26T08:56:17;5.57;;;3.75;;
25915;SDS011;13719;48.188;11.618;2023-06-26T08:58:48;8.23;;;4.03;;
25915;SDS011;13719;48.188;11.618;2023-06-26T09:01:17;6.47;;;3.58;;
25915;SDS011;13719;48.188;11.618;2023-06-26T09:03:45;6.13;;;3.63;;
25915;SDS011;13719;48.188;11.618;2023-06-26T09:06:14;7.00;;;4.35;;
25915;SDS011;13719;48.188;11.618;2023-06-26T09:08:45;6.47;;;3.83;;
25915;SDS011;13719;48.188;11.618;2023-06-26T09:11:14;7.28;;;3.65;;
25915;SDS011;13719;48.188;11.618;2023-06-26T09:13:42;7.70;;;3.30;;
25915;SDS011;13719;48.188;11.618;2023-06-26T09:16:11;6.40;;;3.38;;
25915;SDS011;13719;48.188;11.618;2023-06-26T09:18:40;5.63;;;3.75;;
25915;SDS011;13719;48.188;11.618;2023-06-26T09:21:09;6.47;;;3.75;;
25915;SDS011;13719;48.188;11.618;2023-06-26T09:23:39;7.50;;;3.58;;
25915;SDS011;13719;48.188;11.618;2023-06-26T09:26:09;6.72;;;4.00;;
25915;SDS011;13719;48.188;11.618;2023-06-26T09:28:37;5.82;;;3.88;;
25915;SDS011;13719;48.188;11.618;2023-06-26T09:31:06;8.73;;;3.80;;
25915;SDS011;13719;48.188;11.618;2023-06-26T09:33:37;5.50;;;3.65;;
25915;SDS011;13719;48.188;11.618;2023-06-26T09:36:06;6.25;;;3.53;;
25915;SDS011;13719;48.188;11.618;2023-06-26T09:38:36;5.43;;;3.08;;
25915;SDS011;13719;48.188;11.618;2023-06-26T09:41:04;6.50;;;3.40;;
25915;SDS011;13719;48.188;11.618;2023-06-26T09:43:34;4.30;;;3.20;;
25915;SDS011;13719;48.188;11.618;2023-06-26T09:46:05;6.25;;;3.60;;
25915;SDS011;13719;48.188;11.618;2023-06-26T09:48:34;8.27;;;3.53;;
25915;SDS011;13719;48.188;11.618;2023-06-26T09:51:02;12.40;;;3.67;;
25915;SDS011;13719;48.188;11.618;2023-06-26T09:53:38;6.53;;;3.65;;
25915;SDS011;13719;48.188;11.618;2023-06-26T09:56:07;5.28;;;3.35;;
25915;SDS011;13719;48.188;11.618;2023-06-26T09:58:37;5.10;;;3.65;;
25915;SDS011;13719;48.188;11.618;2023-06-26T10:01:06;5.15;;;3.00;;
25915;SDS011;13719;48.188;11.618;2023-06-26T10:03:36;6.07;;;3.05;;
25915;SDS011;13719;48.188;11.618;2023-06-26T10:06:04;5.25;;;3.08;;
25915;SDS011;13719;48.188;11.618;2023-06-26T10:08:33;5.88;;;3.13;;
25915;SDS011;13719;48.188;11.618;2023-06-26T10:11:02;5.32;;;3.15;;
25915;SDS011;13719;48.188;11.618;2023-06-26T10:13:31;4.32;;;2.90;;
25915;SDS011;13719;48.188;11.618;2023-06-26T10:16:03;5.03;;;3.20;;
25915;SDS011;13719;48.188;11.618;2023-06-26T10:18:33;5.82;;;3.10;;
25915;SDS011;13719;48.188;11.618;2023-06-26T10:21:03;6.40;;;3.38;;
25915;SDS011;13719;48.188;11.618;2023-06-26T10:23:33;5.85;;;2.92;;
25915;SDS011;13719;48.188;11.618;2023-06-26T10:26:02;3.97;;;2.95;;
25915;SDS011;13719;48.188;11.618;2023-06-26T10:28:31;5.40;;;3.28;;
25915;SDS011;13719;48.188;11.618;2023-06-26T10:31:02;8.90;;;2.80;;
25915;SDS011;13719;48.188;11.618;2023-06-26T10:33:32;3.78;;;2.60;;
25915;SDS011;13719;48.188;11.618;2023-06-26T10:36:14;6.72;;;2.90;;
25915;SDS011;13719;48.188;11.618;2023-06-26T10:38:48;4.55;;;3.05;;
25915;SDS011;13719;48.188;11.618;2023-06-26T10:41:19;5.25;;;3.38;;
25915;SDS011;13719;48.188;11.618;2023-06-26T10:43:49;5.47;;;3.53;;
25915;SDS011;13719;48.188;11.618;2023-06-26T10:46:19;5.88;;;2.95;;
25915;SDS011;13719;48.188;11.618;2023-06-26T10:48:59;9.68;;;3.72;;
25915;SDS011;13719;48.188;11.618;2023-06-26T10:51:28;4.85;;;2.92;;
25915;SDS011;13719;48.188;11.618;2023-06-26T10:53:56;3.88;;;2.58;;
25915;SDS011;13719;48.188;11.618;2023-06-26T10:56:40;7.13;;;3.03;;
25915;SDS011;13719;48.188;11.618;2023-06-26T10:59:13;4.45;;;3.10;;
25915;SDS011;13719;48.188;11.618;2023-06-26T11:01:43;4.05;;;2.72;;
25915;SDS011;13719;48.188;11.618;2023-06-26T11:04:13;4.45;;;3.00;;
25915;SDS011;13719;48.188;11.618;2023-06-26T11:06:45;4.28;;;2.72;;
25915;SDS011;13719;48.188;11.618;2023-06-26T11:09:17;4.63;;;2.92;;
25915;SDS011;13719;48.188;11.618;2023-06-26T11:11:55;4.93;;;2.95;;
25915;SDS011;13719;48.188;11.618;2023-06-26T11:14:25;6.88;;;3.13;;
25915;SDS011;13719;48.188;11.618;2023-06-26T11:16:59;8.38;;;3.40;;
25915;SDS011;13719;48.188;11.618;2023-06-26T11:19:27;4.78;;;3.20;;
25915;SDS011;13719;48.188;11.618;2023-06-26T11:21:59;8.00;;;3.20;;
25915;SDS011;13719;48.188;11.618;2023-06-26T11:24:28;5.50;;;2.83;;
25915;SDS011;13719;48.188;11.618;2023-06-26T11:27:02;5.03;;;3.05;;
25915;SDS011;13719;48.188;11.618;2023-06-26T11:29:31;4.93;;;3.30;;
25915;SDS011;13719;48.188;11.618;2023-06-26T11:32:03;7.20;;;3.50;;
25915;SDS011;13719;48.188;11.618;2023-06-26T11:34:33;5.20;;;3.40;;
25915;SDS011;13719;48.188;11.618;2023-06-26T11:37:01;3.65;;;2.83;;
25915;SDS011;13719;48.188;11.618;2023-06-26T11:39:30;5.95;;;3.40;;
25915;SDS011;13719;48.188;11.618;2023-06-26T11:41:59;6.32;;;3.30;;
25915;SDS011;13719;48.188;11.618;2023-06-26T11:44:31;6.13;;;3.40;;
25915;SDS011;13719;48.188;11.618;2023-06-26T11:46:59;4.35;;;3.35;;
25915;SDS011;13719;48.188;11.618;2023-06-26T11:49:29;6.05;;;3.65;;
25915;SDS011;13719;48.188;11.618;2023-06-26T11:51:57;4.13;;;3.20;;
25915;SDS011;13719;48.188;11.618;2023-06-26T11:54:26;8.50;;;3.53;;
25915;SDS011;13719;48.188;11.618;2023-06-26T11:56:55;5.43;;;3.42;;
25915;SDS011;13719;48.188;11.618;2023-06-26T11:59:26;5.80;;;3.42;;
25915;SDS011;13719;48.188;11.618;2023-06-26T12:01:59;5.18;;;3.58;;
25915;SDS011;13719;48.188;11.618;2023-06-26T12:04:29;5.93;;;3.75;;
25915;SDS011;13719;48.188;11.618;2023-06-26T12:06:58;7.18;;;3.85;;
25915;SDS011;13719;48.188;11.618;2023-06-26T12:09:30;5.80;;;3.72;;
25915;SDS011;13719;48.188;11.618;2023-06-26T12:12:00;8.63;;;3.58;;
25915;SDS011;13719;48.188;11.618;2023-06-26T12:14:29;5.22;;;3.55;;
25915;SDS011;13719;48.188;11.618;2023-06-26T12:17:03;4.90;;;3.42;;
25915;SDS011;13719;48.188;11.618;2023-06-26T12:19:33;5.40;;;3.70;;
25915;SDS011;13719;48.188;11.618;2023-06-26T12:22:05;5.95;;;3.67;;
25915;SDS011;13719;48.188;11.618;2023-06-26T12:24:35;4.70;;;3.20;;
25915;SDS011;13719;48.188;11.618;2023-06-26T12:27:07;8.18;;;3.40;;
25915;SDS011;13719;48.188;11.618;2023-06-26T12:29:36;6.38;;;4.38;;
25915;SDS011;13719;48.188;11.618;2023-06-26T12:32:07;6.43;;;3.50;;
25915;SDS011;13719;48.188;11.618;2023-06-26T12:34:37;5.80;;;3.70;;
25915;SDS011;13719;48.188;11.618;2023-06-26T12:37:07;5.43;;;3.53;;
25915;SDS011;13719;48.188;11.618;2023-06-26T12:39:44;5.45;;;3.22;;
25915;SDS011;13719;48.188;11.618;2023-06-26T12:42:14;6.30;;;3.47;;
25915;SDS011;13719;48.188;11.618;2023-06-26T12:44:43;5.63;;;3.42;;
25915;SDS011;13719;48.188;11.618;2023-06-26T12:47:11;7.25;;;4.07;;
25915;SDS011;13719;48.188;11.618;2023-06-26T12:49:42;6.65;;;3.60;;
25915;SDS011;13719;48.188;11.618;2023-06-26T12:52:12;5.35;;;3.47;;
25915;SDS011;13719;48.188;11.618;2023-06-26T12:54:41;6.57;;;3.85;;
25915;SDS011;13719;48.188;11.618;2023-06-26T12:57:09;4.93;;;3.22;;
25915;SDS011;13719;48.188;11.618;2023-06-26T12:59:40;7.70;;;4.10;;
25915;SDS011;13719;48.188;11.618;2023-06-26T13:02:09;8.82;;;3.97;;
25915;SDS011;13719;48.188;11.618;2023-06-26T13:04:39;5.45;;;3.85;;
25915;SDS011;13719;48.188;11.618;2023-06-26T13:07:09;5.53;;;3.70;;
25915;SDS011;13719;48.188;11.618;2023-06-26T13:09:37;11.27;;;4.32;;
25915;SDS011;13719;48.188;11.618;2023-06-26T13:12:07;6.63;;;3.53;;
25915;SDS011;13719;48.188;11.618;2023-06-26T13:14:36;5.90;;;3.97;;
25915;SDS011;13719;48.188;11.618;2023-06-26T13:17:05;6.95;;;4.05;;
25915;SDS011;13719;48.188;11.618;2023-06-26T13:19:35;6.07;;;3.83;;
25915;SDS011;13719;48.188;11.618;2023-06-26T13:22:04;5.07;;;3.50;;
25915;SDS011;13719;48.188;11.618;2023-06-26T13:24:34;7.05;;;4.07;;
25915;SDS011;13719;48.188;11.618;2023-06-26T13:27:02;5.15;;;3.92;;
25915;SDS011;13719;48.188;11.618;2023-06-26T13:29:31;6.53;;;4.10;;
25915;SDS011;13719;48.188;11.618;2023-06-26T13:31:59;7.53;;;4.53;;
25915;SDS011;13719;48.188;11.618;2023-06-26T13:34:28;11.10;;;4.30;;
25915;SDS011;13719;48.188;11.618;2023-06-26T13:36:56;6.90;;;4.20;;
25915;SDS011;13719;48.188;11.618;2023-06-26T13:39:26;5.78;;;3.78;;
25915;SDS011;13719;48.188;11.618;2023-06-26T13:41:56;6.57;;;4.00;;
25915;SDS011;13719;48.188;11.618;2023-06-26T13:44:25;7.80;;;4.30;;
25915;SDS011;13719;48.188;11.618;2023-06-26T13:47:04;7.30;;;4.30;;
25915;SDS011;13719;48.188;11.618;2023-06-26T13:49:35;6.03;;;4.25;;
25915;SDS011;13719;48.188;11.618;2023-06-26T13:52:03;6.70;;;4.22;;
25915;SDS011;13719;48.188;11.618;2023-06-26T13:54:33;5.32;;;4.03;;
25915;SDS011;13719;48.188;11.618;2023-06-26T13:57:04;6.00;;;4.18;;
25915;SDS011;13719;48.188;11.618;2023-06-26T13:59:33;6.70;;;4.63;;
25915;SDS011;13719;48.188;11.618;2023-06-26T14:02:01;6.40;;;4.38;;
25915;SDS011;13719;48.188;11.618;2023-06-26T14:04:31;6.00;;;4.20;;
25915;SDS011;13719;48.188;11.618;2023-06-26T14:07:00;5.10;;;3.60;;
25915;SDS011;13719;48.188;11.618;2023-06-26T14:09:28;6.15;;;4.13;;
25915;SDS011;13719;48.188;11.618;2023-06-26T14:11:57;7.78;;;4.40;;
25915;SDS011;13719;48.188;11.618;2023-06-26T14:14:27;5.68;;;4.03;;
25915;SDS011;13719;48.188;11.618;2023-06-26T14:16:55;8.23;;;4.25;;
25915;SDS011;13719;48.188;11.618;2023-06-26T14:19:25;10.43;;;4.43;;
25915;SDS011;13719;48.188;11.618;2023-06-26T14:21:54;9.95;;;4.20;;
25915;SDS011;13719;48.188;11.618;2023-06-26T14:24:22;7.63;;;4.05;;
25915;SDS011;13719;48.188;11.618;2023-06-26T14:26:50;7.90;;;4.63;;
25915;SDS011;13719;48.188;11.618;2023-06-26T14:29:19;7.72;;;4.05;;
25915;SDS011;13719;48.188;11.618;2023-06-26T14:31:49;7.15;;;4.50;;
25915;SDS011;13719;48.188;11.618;2023-06-26T14:34:20;6.65;;;4.22;;
25915;SDS011;13719;48.188;11.618;2023-06-26T14:36:49;7.60;;;4.78;;
25915;SDS011;13719;48.188;11.618;2023-06-26T14:39:17;8.18;;;4.80;;
25915;SDS011;13719;48.188;11.618;2023-06-26T14:41:46;7.07;;;4.30;;
25915;SDS011;13719;48.188;11.618;2023-06-26T14:44:15;7.28;;;4.25;;
25915;SDS011;13719;48.188;11.618;2023-06-26T14:46:44;6.35;;;4.65;;